Time;durP1;ratioP1;P1;durP2;ratioP2;P2;SDS_P1;SDS_P2;PMS_P1;PMS_P2;Temp;Humidity;BMP_temperature;BMP_pressure;BME280_temperature;BME280_humidity;BME280_pressure;Samples;Min_cycle;Max_cycle;Signal;HPM_P1;HPM_P2
2022/12/20 00:01:58;;;;;;;4.80;2.20;;;10.40;99.90;;;;;;5017498;28;20033;-82
2022/12/20 00:04:23;;;;;;;4.25;2.08;;;10.40;99.90;;;;;;5016261;28;20041;-81
2022/12/20 00:06:49;;;;;;;3.80;1.80;;;10.40;99.90;;;;;;5016800;28;20028;-80
2022/12/20 00:09:15;;;;;;;3.00;1.77;;;10.40;99.90;;;;;;5016228;28;20031;-79
2022/12/20 00:11:41;;;;;;;3.67;1.65;;;10.50;99.90;;;;;;5016552;28;20021;-80
2022/12/20 00:14:10;;;;;;;3.50;1.90;;;10.40;99.90;;;;;;5036741;28;20092;-83
2022/12/20 00:16:36;;;;;;;3.95;1.50;;;10.40;99.90;;;;;;5020054;28;20055;-84
2022/12/20 00:19:04;;;;;;;2.75;1.27;;;10.40;99.90;;;;;;5038926;28;20025;-83
2022/12/20 00:21:32;;;;;;;3.60;1.42;;;10.40;99.90;;;;;;5040640;28;20049;-83
2022/12/20 00:24:05;;;;;;;3.45;1.60;;;10.50;99.90;;;;;;5032874;28;20458;-83
2022/12/20 00:26:32;;;;;;;2.80;1.42;;;10.50;99.90;;;;;;5032586;28;20488;-84
2022/12/20 00:28:59;;;;;;;3.45;1.27;;;10.50;99.90;;;;;;5034184;28;20036;-84
2022/12/20 00:31:27;;;;;;;3.80;1.48;;;10.50;99.90;;;;;;5030142;28;20025;-84
2022/12/20 00:33:54;;;;;;;4.60;1.60;;;10.60;99.90;;;;;;5033269;28;20044;-84
2022/12/20 00:36:22;;;;;;;2.85;1.40;;;10.60;99.90;;;;;;5041377;28;20092;-84
2022/12/20 00:38:49;;;;;;;3.58;1.27;;;10.60;99.90;;;;;;5044420;28;20022;-84
2022/12/20 00:41:20;;;;;;;3.28;1.50;;;10.60;99.90;;;;;;5011297;28;20454;-83
2022/12/20 00:43:47;;;;;;;3.47;1.38;;;10.70;99.90;;;;;;5025110;28;20021;-83
2022/12/20 00:46:14;;;;;;;2.30;1.25;;;10.70;99.90;;;;;;5034497;28;20044;-84
2022/12/20 00:48:40;;;;;;;1.95;1.15;;;10.80;99.90;;;;;;5034361;28;20037;-84
2022/12/20 00:51:18;;;;;;;3.15;1.02;;;10.80;99.90;;;;;;5016237;28;20022;-83
2022/12/20 00:53:43;;;;;;;2.05;1.13;;;10.80;99.90;;;;;;5034063;28;20023;-84
2022/12/20 00:56:10;;;;;;;2.53;1.15;;;10.90;99.90;;;;;;5016791;28;20108;-84
2022/12/20 00:58:38;;;;;;;2.45;1.00;;;10.90;99.90;;;;;;5034267;28;20017;-85
2022/12/20 01:01:13;;;;;;;4.55;1.25;;;10.90;99.90;;;;;;5037927;28;20084;-85
2022/12/20 01:03:38;;;;;;;2.72;1.33;;;11.00;99.90;;;;;;5021751;28;20018;-84
2022/12/20 01:06:04;;;;;;;2.08;1.00;;;11.00;99.90;;;;;;5008935;28;20029;-84
2022/12/20 01:08:30;;;;;;;4.60;1.10;;;11.00;99.90;;;;;;5025312;28;20044;-84
2022/12/20 01:11:16;;;;;;;2.00;0.90;;;11.00;99.90;;;;;;5044426;28;20032;-83
2022/12/20 01:13:45;;;;;;;3.13;1.30;;;11.10;99.90;;;;;;5042693;28;20018;-84
2022/12/20 01:16:14;;;;;;;3.35;1.17;;;11.10;99.90;;;;;;5051432;28;20116;-83
2022/12/20 01:18:40;;;;;;;2.88;1.23;;;11.10;99.90;;;;;;5025328;28;20030;-83
2022/12/20 01:21:09;;;;;;;1.50;0.80;;;11.10;99.90;;;;;;5012642;28;20053;-84
2022/12/20 01:23:35;;;;;;;2.97;0.95;;;11.10;99.90;;;;;;5029291;28;20029;-85
2022/12/20 01:26:03;;;;;;;3.75;1.38;;;11.10;99.90;;;;;;5012213;28;20029;-84
2022/12/20 01:28:29;;;;;;;2.30;1.00;;;11.20;99.90;;;;;;5049694;28;20022;-84
2022/12/20 01:30:55;;;;;;;2.15;1.05;;;11.20;99.90;;;;;;5015946;28;20120;-84
2022/12/20 01:33:21;;;;;;;2.85;0.98;;;11.20;99.90;;;;;;5020924;28;20025;-83
2022/12/20 01:36:02;;;;;;;3.97;1.30;;;11.20;99.90;;;;;;5039227;28;20025;-82
2022/12/20 01:38:28;;;;;;;2.30;0.88;;;11.20;99.90;;;;;;5035520;28;20017;-85
2022/12/20 01:40:56;;;;;;;3.50;1.23;;;11.10;99.90;;;;;;5041377;28;20021;-84
2022/12/20 01:43:23;;;;;;;3.60;1.02;;;11.10;99.90;;;;;;5023665;28;20035;-84
2022/12/20 01:45:48;;;;;;;2.88;1.00;;;11.10;99.90;;;;;;5030230;28;20055;-85
2022/12/20 01:48:20;;;;;;;4.82;1.20;;;11.10;99.90;;;;;;5031723;28;20029;-84
2022/12/20 01:50:47;;;;;;;2.92;1.25;;;11.10;99.90;;;;;;5047129;28;20040;-84
2022/12/20 01:53:15;;;;;;;4.00;1.15;;;11.10;99.90;;;;;;5033505;28;20041;-86
2022/12/20 01:55:41;;;;;;;3.90;1.42;;;11.10;99.90;;;;;;5042402;28;20029;-82
2022/12/20 01:58:13;;;;;;;4.25;1.55;;;11.10;99.90;;;;;;5056742;28;20013;-83
2022/12/20 02:00:38;;;;;;;2.50;1.35;;;11.10;99.90;;;;;;5041861;28;20033;-84
2022/12/20 02:03:07;;;;;;;2.28;1.35;;;11.00;99.90;;;;;;5023801;28;20041;-82
2022/12/20 02:05:37;;;;;;;5.15;1.67;;;11.00;99.90;;;;;;5037130;28;20021;-81
2022/12/20 02:08:05;;;;;;;4.85;1.50;;;11.00;99.90;;;;;;5037792;28;20095;-82
2022/12/20 02:10:53;;;;;;;4.53;1.60;;;11.00;99.90;;;;;;5037922;28;20017;-81
2022/12/20 02:13:42;;;;;;;4.40;1.55;;;10.90;99.90;;;;;;4997737;28;20055;-82
2022/12/20 02:16:11;;;;;;;4.15;1.42;;;10.80;99.90;;;;;;5036393;28;20195;-82
2022/12/20 02:18:57;;;;;;;3.55;1.88;;;10.80;99.90;;;;;;5038456;28;20033;-82
2022/12/20 02:21:33;;;;;;;3.25;2.00;;;10.80;99.90;;;;;;5019423;28;20045;-82
2022/12/20 02:24:34;;;;;;;3.90;2.05;;;10.70;99.90;;;;;;5040980;28;20107;-82
2022/12/20 02:27:12;;;;;;;5.32;2.15;;;10.70;99.90;;;;;;5024042;28;20021;-83
2022/12/20 02:30:15;;;;;;;3.22;2.10;;;10.70;99.90;;;;;;5023955;28;20033;-82
2022/12/20 02:32:48;;;;;;;4.38;2.28;;;10.70;99.90;;;;;;4995014;28;20045;-82
2022/12/20 02:35:25;;;;;;;3.20;1.92;;;10.60;99.90;;;;;;5033707;28;20037;-82
2022/12/20 02:37:54;;;;;;;6.03;1.98;;;10.60;99.90;;;;;;5053356;28;20021;-83
2022/12/20 02:40:24;;;;;;;8.23;3.03;;;10.60;99.90;;;;;;5038941;28;20013;-83
2022/12/20 02:42:55;;;;;;;6.28;2.42;;;10.60;99.90;;;;;;5039328;28;20029;-83
2022/12/20 02:45:26;;;;;;;5.35;2.35;;;10.60;99.90;;;;;;5040409;28;20021;-83
2022/12/20 02:47:59;;;;;;;5.50;2.05;;;10.60;99.90;;;;;;5054505;28;20057;-82
2022/12/20 02:50:48;;;;;;;2.97;2.28;;;10.60;99.90;;;;;;5034750;28;20108;-82
2022/12/20 02:53:15;;;;;;;5.95;2.75;;;10.60;99.90;;;;;;5031839;28;20025;-82
2022/12/20 02:56:06;;;;;;;5.50;2.55;;;10.60;99.90;;;;;;5030140;28;20036;-84
2022/12/20 02:59:04;;;;;;;3.20;2.10;;;10.60;99.90;;;;;;5026917;28;20032;-83
2022/12/20 03:01:43;;;;;;;6.07;2.45;;;10.60;99.90;;;;;;5316051;22;21417;-82
2022/12/20 03:04:09;;;;;;;4.97;2.22;;;10.60;99.90;;;;;;5377223;22;20126;-82
2022/12/20 03:06:35;;;;;;;3.80;2.05;;;10.60;99.90;;;;;;5094008;28;20037;-84
2022/12/20 03:09:01;;;;;;;4.47;1.73;;;10.60;99.90;;;;;;5087642;28;20093;-85
2022/12/20 03:11:27;;;;;;;3.70;1.92;;;10.60;99.90;;;;;;5080174;28;20361;-84
2022/12/20 03:13:52;;;;;;;5.68;2.35;;;10.60;99.90;;;;;;5078341;28;20024;-84
2022/12/20 03:16:18;;;;;;;5.22;2.20;;;10.60;99.90;;;;;;5058930;28;20085;-84
2022/12/20 03:18:44;;;;;;;4.22;2.05;;;10.70;99.90;;;;;;5077555;28;20404;-82
2022/12/20 03:21:11;;;;;;;6.05;2.15;;;10.60;99.90;;;;;;5059393;28;20035;-83
2022/12/20 03:23:36;;;;;;;5.63;2.58;;;10.60;99.90;;;;;;5061649;28;20032;-82
2022/12/20 03:26:02;;;;;;;4.38;2.40;;;10.60;99.90;;;;;;5088539;28;20112;-83
2022/12/20 03:28:27;;;;;;;7.78;2.50;;;10.60;99.90;;;;;;5070247;28;20025;-83
2022/12/20 03:30:53;;;;;;;4.88;2.58;;;10.60;99.90;;;;;;5065057;28;20032;-82
2022/12/20 03:33:18;;;;;;;6.10;2.72;;;10.60;99.90;;;;;;5087805;28;20161;-81
2022/12/20 03:35:45;;;;;;;3.45;2.17;;;10.60;99.90;;;;;;5089842;28;20100;-82
2022/12/20 03:38:11;;;;;;;2.90;2.03;;;10.60;99.90;;;;;;5087420;28;20108;-83
2022/12/20 03:40:37;;;;;;;5.38;2.38;;;10.60;99.90;;;;;;5083400;28;20028;-83
2022/12/20 03:43:02;;;;;;;5.30;2.20;;;10.60;99.90;;;;;;5063464;28;20050;-83
2022/12/20 03:45:29;;;;;;;4.22;2.55;;;10.60;99.90;;;;;;5064748;28;20053;-82
2022/12/20 03:47:55;;;;;;;3.05;2.25;;;10.60;99.90;;;;;;5065656;28;20043;-82
2022/12/20 03:50:20;;;;;;;4.95;2.30;;;10.60;99.90;;;;;;5089711;28;20020;-82
2022/12/20 03:52:46;;;;;;;4.90;2.42;;;10.60;99.90;;;;;;5090806;28;20037;-82
2022/12/20 03:55:11;;;;;;;3.30;2.50;;;10.60;99.90;;;;;;5093226;28;20043;-82
2022/12/20 03:57:38;;;;;;;5.43;2.60;;;10.60;99.90;;;;;;5094894;28;20029;-82
2022/12/20 04:00:05;;;;;;;3.63;2.00;;;10.60;99.90;;;;;;5091138;28;20036;-82
2022/12/20 04:02:31;;;;;;;5.35;2.05;;;10.60;99.90;;;;;;5095131;28;20012;-82
2022/12/20 04:04:56;;;;;;;4.22;2.13;;;10.70;99.90;;;;;;5092016;28;20064;-82
2022/12/20 04:07:22;;;;;;;5.40;2.08;;;10.70;99.90;;;;;;5073504;28;20032;-82
2022/12/20 04:09:48;;;;;;;4.15;2.00;;;10.70;99.90;;;;;;5092283;28;20036;-82
2022/12/20 04:12:13;;;;;;;3.55;2.10;;;10.70;99.90;;;;;;5090507;28;20482;-82
2022/12/20 04:14:39;;;;;;;4.05;2.05;;;10.70;99.90;;;;;;5094178;28;21903;-82
2022/12/20 04:17:08;;;;;;;2.92;2.20;;;10.70;99.90;;;;;;5091992;28;20012;-82
2022/12/20 04:19:33;;;;;;;3.97;1.77;;;10.60;99.90;;;;;;5090603;28;20035;-81
2022/12/20 04:21:59;;;;;;;5.03;2.05;;;10.60;99.90;;;;;;5087953;28;20048;-82
2022/12/20 04:24:25;;;;;;;4.43;1.65;;;10.60;99.90;;;;;;5083912;28;20492;-82
2022/12/20 04:26:50;;;;;;;3.97;1.67;;;10.70;99.90;;;;;;5082064;28;20029;-81
2022/12/20 04:29:16;;;;;;;6.03;2.28;;;10.70;99.90;;;;;;5086754;28;20039;-81
2022/12/20 04:31:41;;;;;;;4.47;1.77;;;10.80;99.90;;;;;;5085680;28;20042;-81
2022/12/20 04:34:07;;;;;;;2.90;1.85;;;10.80;99.90;;;;;;5080632;28;20033;-82
2022/12/20 04:36:33;;;;;;;5.72;2.03;;;10.80;99.90;;;;;;5058169;28;20037;-81
2022/12/20 04:38:58;;;;;;;4.95;1.77;;;10.80;99.90;;;;;;5057447;28;20082;-82
2022/12/20 04:41:25;;;;;;;3.65;2.10;;;10.80;99.90;;;;;;5056442;28;20464;-83
2022/12/20 04:43:56;;;;;;;4.18;1.88;;;10.80;99.90;;;;;;5055919;28;20202;-82
2022/12/20 04:46:22;;;;;;;4.13;1.65;;;10.80;99.90;;;;;;5072159;28;20524;-82
2022/12/20 04:48:48;;;;;;;3.15;1.58;;;10.90;99.90;;;;;;5071808;28;20036;-83
2022/12/20 04:51:15;;;;;;;4.03;1.55;;;10.90;99.90;;;;;;5073530;28;20111;-83
2022/12/20 04:53:46;;;;;;;4.30;2.05;;;10.90;99.90;;;;;;5073458;28;20029;-83
2022/12/20 04:56:19;;;;;;;3.58;1.33;;;10.90;99.90;;;;;;5073805;28;20495;-83
2022/12/20 04:58:45;;;;;;;;;;;10.90;99.90;;;;;;5078722;28;20031;-83
2022/12/20 05:01:12;;;;;;;2.42;1.65;;;11.00;99.90;;;;;;5077715;28;19905;-83
2022/12/20 05:03:37;;;;;;;3.95;1.83;;;11.00;99.90;;;;;;5077382;28;20476;-83
2022/12/20 05:06:04;;;;;;;5.13;2.00;;;11.00;99.90;;;;;;5077486;28;20040;-84
2022/12/20 05:08:29;;;;;;;2.50;1.33;;;11.00;99.90;;;;;;5076654;28;20421;-85
2022/12/20 05:10:55;;;;;;;4.22;1.48;;;11.00;99.90;;;;;;5078215;28;20101;-86
2022/12/20 05:13:21;;;;;;;3.40;1.58;;;11.10;99.90;;;;;;5079402;28;20104;-85
2022/12/20 05:15:51;;;;;;;3.40;1.33;;;11.10;99.90;;;;;;5077829;28;20075;-84
2022/12/20 05:18:17;;;;;;;5.63;1.70;;;11.10;99.90;;;;;;5067529;28;20052;-83
2022/12/20 05:20:42;;;;;;;4.20;1.50;;;11.10;99.90;;;;;;5085072;28;20033;-84
2022/12/20 05:28:37;;;;;;;3.22;1.83;;;11.20;99.90;;;;;;5085104;28;20055;-84
2022/12/20 05:31:03;;;;;;;6.38;2.33;;;11.20;99.90;;;;;;5078334;28;20029;-82
2022/12/20 05:33:29;;;;;;;4.20;2.03;;;11.10;99.90;;;;;;5060111;28;20050;-82
2022/12/20 05:35:54;;;;;;;3.17;2.00;;;11.00;99.90;;;;;;5077541;28;20075;-81
2022/12/20 05:38:21;;;;;;;6.47;2.38;;;11.10;99.90;;;;;;5079751;28;20025;-80
2022/12/20 05:40:48;;;;;;;4.70;1.67;;;11.10;99.90;;;;;;5061480;28;20422;-81
2022/12/20 05:43:14;;;;;;;5.40;2.00;;;11.10;99.90;;;;;;5078524;28;20089;-81
2022/12/20 05:45:44;;;;;;;4.22;1.95;;;11.00;99.90;;;;;;5078515;28;20039;-81
2022/12/20 05:48:10;;;;;;;4.63;2.30;;;11.00;99.90;;;;;;5076313;28;20042;-81
2022/12/20 05:50:35;;;;;;;6.72;2.13;;;11.00;99.90;;;;;;5076043;28;20107;-81
2022/12/20 05:53:01;;;;;;;4.63;2.50;;;11.00;99.90;;;;;;5076692;28;20036;-83
2022/12/20 05:55:26;;;;;;;7.18;2.45;;;11.00;99.90;;;;;;5077351;28;20032;-80
2022/12/20 05:57:52;;;;;;;5.53;1.90;;;11.00;99.90;;;;;;5078237;28;20036;-81
2022/12/20 06:00:18;;;;;;;7.47;2.30;;;11.00;99.90;;;;;;5059421;28;20029;-80
2022/12/20 06:02:44;;;;;;;4.15;1.75;;;11.00;99.90;;;;;;5075999;28;20538;-81
2022/12/20 06:05:09;;;;;;;5.18;2.65;;;11.10;99.90;;;;;;5076270;28;20052;-81
2022/12/20 06:07:35;;;;;;;7.80;2.55;;;11.10;99.90;;;;;;5074424;28;20037;-80
2022/12/20 06:10:01;;;;;;;8.30;2.20;;;11.00;99.90;;;;;;5074499;28;20060;-80
2022/12/20 06:12:26;;;;;;;7.15;2.45;;;11.00;99.90;;;;;;5076351;28;20031;-80
2022/12/20 06:14:52;;;;;;;8.40;2.70;;;11.10;99.90;;;;;;5074315;28;20477;-79
2022/12/20 06:17:18;;;;;;;5.90;2.58;;;11.10;99.90;;;;;;5075691;28;20033;-79
2022/12/20 06:19:45;;;;;;;7.53;2.53;;;11.10;99.90;;;;;;5074201;28;20385;-80
2022/12/20 06:22:10;;;;;;;5.30;2.47;;;11.10;99.90;;;;;;5075735;28;20032;-81
2022/12/20 06:24:38;;;;;;;8.20;2.58;;;11.10;99.90;;;;;;5074452;28;20530;-80
2022/12/20 06:27:05;;;;;;;3.85;1.92;;;11.10;99.90;;;;;;5074222;28;20033;-81
2022/12/20 06:29:32;;;;;;;3.08;2.35;;;11.10;99.90;;;;;;5073923;28;20119;-80
2022/12/20 06:31:58;;;;;;;6.00;2.25;;;11.10;99.90;;;;;;5075943;28;20114;-81
2022/12/20 06:34:24;;;;;;;6.95;2.42;;;11.10;99.90;;;;;;5075892;28;20490;-82
2022/12/20 06:36:50;;;;;;;4.65;2.30;;;11.10;99.90;;;;;;5074558;28;20076;-81
2022/12/20 06:39:15;;;;;;;4.55;1.90;;;11.10;99.90;;;;;;5075768;28;20052;-80
2022/12/20 06:41:41;;;;;;;6.90;2.33;;;11.10;99.90;;;;;;5041417;28;20060;-80
2022/12/20 06:44:07;;;;;;;5.63;2.17;;;11.10;99.90;;;;;;5041303;28;20040;-81
2022/12/20 06:46:33;;;;;;;5.20;1.83;;;11.10;99.90;;;;;;5074380;28;20036;-81
2022/12/20 06:48:58;;;;;;;6.45;2.10;;;11.10;99.90;;;;;;5056986;28;20024;-80
2022/12/20 06:51:24;;;;;;;5.28;2.00;;;11.10;99.90;;;;;;5057569;28;20431;-81
2022/12/20 06:53:50;;;;;;;3.42;1.95;;;11.10;99.90;;;;;;5057244;28;20082;-81
2022/12/20 06:56:16;;;;;;;5.25;2.15;;;11.10;99.90;;;;;;5057639;28;20037;-82
2022/12/20 06:58:42;;;;;;;6.82;4.75;;;11.10;99.90;;;;;;5076027;28;20408;-81
2022/12/20 07:01:07;;;;;;;4.93;3.50;;;11.10;99.90;;;;;;5074320;28;20492;-82
2022/12/20 07:03:33;;;;;;;4.22;2.28;;;11.10;99.90;;;;;;5057285;28;20043;-82
2022/12/20 07:05:58;;;;;;;7.28;3.83;;;11.20;99.90;;;;;;5073344;28;20053;-83
2022/12/20 07:08:25;;;;;;;4.63;2.10;;;11.20;99.90;;;;;;5075092;28;20032;-79
2022/12/20 07:10:54;;;;;;;4.47;1.27;;;11.10;99.90;;;;;;5073783;28;20376;-80
2022/12/20 07:13:19;;;;;;;5.32;1.40;;;11.20;99.90;;;;;;5073926;28;20064;-81
2022/12/20 07:15:45;;;;;;;2.65;1.40;;;11.20;99.90;;;;;;5057247;28;20082;-80
2022/12/20 07:18:11;;;;;;;3.80;1.35;;;11.20;99.90;;;;;;5075001;28;20032;-81
2022/12/20 07:20:36;;;;;;;4.75;1.40;;;11.20;99.90;;;;;;5073956;28;20027;-82
2022/12/20 07:23:02;;;;;;;4.65;1.65;;;11.20;99.90;;;;;;5077992;28;20036;-81
2022/12/20 07:25:28;;;;;;;3.53;1.45;;;11.20;99.90;;;;;;5075021;28;20033;-80
2022/12/20 07:27:54;;;;;;;2.42;1.40;;;11.20;99.90;;;;;;5075302;28;20032;-82
2022/12/20 07:30:20;;;;;;;4.65;1.40;;;11.20;99.90;;;;;;5076008;28;20439;-81
2022/12/20 07:32:46;;;;;;;4.50;1.98;;;11.20;99.90;;;;;;5074654;28;20033;-81
2022/12/20 07:35:13;;;;;;;4.43;1.92;;;11.20;99.90;;;;;;5075654;28;20071;-83
2022/12/20 07:37:38;;;;;;;3.55;1.10;;;11.20;99.90;;;;;;5074101;28;20457;-82
2022/12/20 07:40:06;;;;;;;4.88;1.60;;;11.30;99.90;;;;;;5074673;28;20048;-82
2022/12/20 07:42:32;;;;;;;3.53;1.40;;;11.30;99.90;;;;;;5073895;28;20064;-81
2022/12/20 07:44:58;;;;;;;3.65;1.30;;;11.30;99.90;;;;;;5073754;28;20499;-82
2022/12/20 07:47:24;;;;;;;2.17;1.20;;;11.30;99.90;;;;;;5073654;28;20036;-82
2022/12/20 07:49:49;;;;;;;3.53;1.38;;;11.30;99.90;;;;;;5057003;28;20032;-82
2022/12/20 07:52:18;;;;;;;3.75;1.40;;;11.30;99.90;;;;;;5056225;28;20032;-81
2022/12/20 07:54:48;;;;;;;4.05;1.52;;;11.30;99.90;;;;;;5074192;28;20032;-81
2022/12/20 07:57:35;;;;;;;4.10;1.52;;;11.30;99.90;;;;;;5072726;28;20036;-82
2022/12/20 08:00:02;;;;;;;2.70;1.30;;;11.30;99.90;;;;;;5073193;28;20380;-81
2022/12/20 08:02:37;;;;;;;2.25;1.02;;;11.30;99.90;;;;;;5074209;28;20021;-81
2022/12/20 08:05:06;;;;;;;2.28;1.30;;;11.40;99.90;;;;;;5074330;28;20508;-77
2022/12/20 08:07:31;;;;;;;3.65;1.13;;;11.40;99.90;;;;;;5073911;28;20033;-77
2022/12/20 08:09:58;;;;;;;3.58;1.50;;;11.40;99.90;;;;;;5072605;28;20069;-75
2022/12/20 08:12:26;;;;;;;5.35;1.40;;;11.30;99.90;;;;;;5073758;28;20477;-76
2022/12/20 08:14:55;;;;;;;3.40;1.17;;;11.40;99.90;;;;;;5074877;28;20044;-75
2022/12/20 08:17:21;;;;;;;4.72;1.38;;;11.40;99.90;;;;;;5077452;28;20040;-81
2022/12/20 08:19:47;;;;;;;3.63;1.25;;;11.40;99.90;;;;;;5057527;28;20043;-81
2022/12/20 08:22:13;;;;;;;2.55;1.00;;;11.40;99.90;;;;;;5058221;28;20024;-80
2022/12/20 08:24:39;;;;;;;3.75;0.90;;;11.30;99.90;;;;;;5057031;28;20055;-81
2022/12/20 08:27:05;;;;;;;3.08;1.58;;;11.40;99.90;;;;;;5073017;28;20388;-80
2022/12/20 08:29:30;;;;;;;4.35;1.70;;;11.40;99.90;;;;;;5057361;28;20029;-81
2022/12/20 08:31:56;;;;;;;3.58;1.30;;;11.40;99.90;;;;;;5075895;28;20448;-81
2022/12/20 08:34:22;;;;;;;2.65;1.00;;;11.40;99.90;;;;;;5056928;28;20033;-82
2022/12/20 08:36:47;;;;;;;6.40;2.35;;;11.30;99.90;;;;;;5050557;28;20431;-80
2022/12/20 08:39:13;;;;;;;3.13;1.27;;;11.30;99.90;;;;;;5064792;28;20037;-81
2022/12/20 08:41:39;;;;;;;3.15;1.02;;;11.30;99.90;;;;;;5062711;28;20443;-81
2022/12/20 08:44:05;;;;;;;4.72;1.08;;;11.40;99.90;;;;;;5040136;28;20502;-80
2022/12/20 08:46:31;;;;;;;6.82;1.63;;;11.30;99.90;;;;;;5038446;28;20037;-80
2022/12/20 08:48:57;;;;;;;2.63;1.40;;;11.30;99.90;;;;;;5036770;28;20048;-81
2022/12/20 08:51:23;;;;;;;3.95;1.30;;;11.30;99.90;;;;;;5052282;28;20029;-82
2022/12/20 08:53:48;;;;;;;2.72;0.90;;;11.30;99.90;;;;;;5052026;28;20029;-81
2022/12/20 08:56:16;;;;;;;2.95;1.27;;;11.30;99.90;;;;;;5056399;28;20154;-81
2022/12/20 08:58:43;;;;;;;5.70;1.55;;;11.30;99.90;;;;;;5071953;28;20415;-81
2022/12/20 09:01:15;;;;;;;3.83;0.95;;;11.40;99.90;;;;;;5071587;28;20035;-80
2022/12/20 09:03:41;;;;;;;2.30;1.25;;;11.30;99.90;;;;;;5073111;28;20025;-81
2022/12/20 09:06:10;;;;;;;3.45;1.10;;;11.40;99.90;;;;;;5072861;28;20088;-82
2022/12/20 09:08:37;;;;;;;2.95;1.52;;;11.40;99.90;;;;;;5064668;28;20052;-80
2022/12/20 09:11:11;;;;;;;6.25;1.35;;;11.40;99.90;;;;;;5054845;28;20037;-83
2022/12/20 09:13:37;;;;;;;3.47;0.98;;;11.30;99.90;;;;;;5052448;28;20025;-77
2022/12/20 09:16:04;;;;;;;4.13;1.10;;;11.30;99.90;;;;;;5053055;28;20064;-77
2022/12/20 09:18:31;;;;;;;2.20;0.98;;;11.30;99.90;;;;;;5051217;28;20021;-77
2022/12/20 09:21:04;;;;;;;4.30;1.42;;;11.30;99.90;;;;;;5056234;28;20033;-77
2022/12/20 09:23:32;;;;;;;5.82;2.22;;;11.20;99.90;;;;;;5051777;28;20039;-76
2022/12/20 09:26:10;;;;;;;9.25;1.70;;;11.20;99.90;;;;;;5060447;28;20082;-75
2022/12/20 09:28:36;;;;;;;4.57;1.90;;;11.20;99.90;;;;;;5063035;28;20021;-75
2022/12/20 09:31:04;;;;;;;4.13;1.20;;;11.20;99.90;;;;;;5061028;28;20040;-74
2022/12/20 09:33:31;;;;;;;5.00;1.73;;;11.10;99.90;;;;;;5066865;28;20035;-75
2022/12/20 09:35:57;;;;;;;3.97;1.60;;;11.10;99.90;;;;;;5071811;28;20032;-81
2022/12/20 09:38:23;;;;;;;3.78;1.40;;;11.10;99.90;;;;;;5054880;28;20123;-76
2022/12/20 09:40:52;;;;;;;3.55;1.30;;;11.10;99.90;;;;;;5072667;28;20025;-76
2022/12/20 09:43:19;;;;;;;5.20;1.77;;;11.10;99.90;;;;;;5056135;28;20077;-76
2022/12/20 09:45:50;;;;;;;4.40;1.70;;;11.10;99.90;;;;;;5076155;28;20483;-76
2022/12/20 09:48:23;;;;;;;5.80;1.77;;;11.10;99.90;;;;;;5074858;28;20048;-76
2022/12/20 09:51:07;;;;;;;;;;;11.10;99.90;;;;;;5076347;28;20055;-77
2022/12/20 09:53:49;;;;;;;5.40;1.63;;;11.10;99.90;;;;;;5076146;28;19904;-76
2022/12/20 09:56:17;;;;;;;4.30;1.67;;;11.10;99.90;;;;;;5076456;28;20129;-76
2022/12/20 09:58:58;;;;;;;4.95;1.13;;;11.10;99.90;;;;;;5076382;28;20029;-76
2022/12/20 10:01:27;;;;;;;7.22;1.92;;;11.10;99.90;;;;;;5076319;28;20032;-76
2022/12/20 10:03:55;;;;;;;6.57;1.80;;;11.10;99.90;;;;;;5074699;28;20032;-75
2022/12/20 10:06:32;;;;;;;4.43;1.50;;;11.10;99.90;;;;;;5076527;28;20550;-76
2022/12/20 10:09:04;;;;;;;3.63;1.60;;;11.10;99.90;;;;;;5075935;28;20056;-77
2022/12/20 10:11:51;;;;;;;4.03;1.83;;;11.10;99.90;;;;;;5076215;28;20051;-76
2022/12/20 10:14:26;;;;;;;3.53;1.40;;;11.00;99.90;;;;;;5075959;28;20032;-76
2022/12/20 10:17:04;;;;;;;3.00;1.45;;;11.00;99.90;;;;;;5075770;28;20029;-76
2022/12/20 10:20:07;;;;;;;5.28;2.25;;;11.10;99.90;;;;;;5075384;28;20032;-76
2022/12/20 10:22:58;;;;;;;2.65;1.30;;;11.10;99.90;;;;;;5076054;28;20025;-76
2022/12/20 10:25:30;;;;;;;4.35;1.38;;;11.10;99.90;;;;;;5075583;28;20047;-76
2022/12/20 10:27:59;;;;;;;3.63;1.55;;;11.10;99.90;;;;;;5074833;28;20033;-76
2022/12/20 10:30:26;;;;;;;7.30;2.15;;;11.10;99.90;;;;;;5074558;28;20051;-76
2022/12/20 10:32:56;;;;;;;7.38;1.55;;;11.10;99.90;;;;;;5074770;28;20488;-76
2022/12/20 10:35:27;;;;;;;5.30;2.17;;;11.10;99.90;;;;;;5075449;28;20086;-76
2022/12/20 10:37:58;;;;;;;4.35;1.67;;;11.10;99.90;;;;;;5074534;28;20031;-77
2022/12/20 10:40:30;;;;;;;5.10;1.67;;;11.00;99.90;;;;;;5075572;28;20032;-76
2022/12/20 10:42:56;;;;;;;7.10;2.03;;;11.10;99.90;;;;;;5058083;28;20048;-76
2022/12/20 10:45:21;;;;;;;4.78;1.60;;;11.00;99.90;;;;;;5074349;28;20044;-76
2022/12/20 10:47:49;;;;;;;3.50;1.90;;;11.00;99.90;;;;;;5074039;28;20035;-76
2022/12/20 10:50:18;;;;;;;3.50;2.00;;;11.00;99.90;;;;;;5075043;28;20385;-76
2022/12/20 10:52:45;;;;;;;9.07;2.47;;;11.00;99.90;;;;;;5075405;28;20074;-76
2022/12/20 10:55:37;;;;;;;6.65;2.63;;;11.00;99.90;;;;;;5074132;28;20045;-76
2022/12/20 10:58:14;;;;;;;4.30;1.67;;;11.00;99.90;;;;;;5078128;28;20033;-80
2022/12/20 11:00:41;;;;;;;5.03;2.20;;;11.00;99.90;;;;;;5082599;28;20179;-80
2022/12/20 11:03:15;;;;;;;6.35;1.73;;;11.00;99.90;;;;;;5082892;28;20028;-81
2022/12/20 11:05:58;;;;;;;4.57;2.05;;;11.10;99.90;;;;;;5084344;28;20049;-80
2022/12/20 11:08:25;;;;;;;3.40;2.15;;;11.10;99.90;;;;;;5079614;28;20051;-79
2022/12/20 11:11:09;;;;;;;6.05;2.13;;;11.00;99.90;;;;;;5074605;28;20454;-75
2022/12/20 11:13:35;;;;;;;5.10;1.80;;;11.00;99.90;;;;;;5068037;28;20052;-75
2022/12/20 11:16:00;;;;;;;5.70;2.15;;;11.00;99.90;;;;;;5075077;28;20123;-76
2022/12/20 11:18:37;;;;;;;5.65;2.10;;;11.10;99.90;;;;;;5073257;28;20445;-78
2022/12/20 11:21:23;;;;;;;3.70;1.90;;;11.10;99.90;;;;;;5074896;28;20061;-76
2022/12/20 11:24:07;;;;;;;6.43;2.30;;;11.20;99.90;;;;;;5043508;28;20064;-75
2022/12/20 11:27:05;;;;;;;6.22;2.67;;;11.10;99.90;;;;;;5074564;28;20181;-75
2022/12/20 11:29:43;;;;;;;2.80;1.85;;;11.20;99.90;;;;;;5073240;28;20033;-76
2022/12/20 11:32:11;;;;;;;5.22;2.80;;;11.10;99.90;;;;;;5075189;28;20068;-76
2022/12/20 11:35:06;;;;;;;4.05;1.98;;;11.10;99.90;;;;;;5075796;28;20472;-76
2022/12/20 11:38:05;;;;;;;5.40;2.80;;;11.10;99.90;;;;;;5074221;28;20032;-77
2022/12/20 11:40:42;;;;;;;7.38;2.03;;;11.10;99.90;;;;;;5053845;28;20492;-76
2022/12/20 11:43:30;;;;;;;5.43;2.17;;;11.10;99.90;;;;;;5073390;28;20028;-75
2022/12/20 11:46:23;;;;;;;2.40;1.90;;;11.10;99.90;;;;;;5073223;28;20028;-76
2022/12/20 11:48:48;;;;;;;7.63;2.50;;;11.10;99.90;;;;;;5073829;28;20020;-76
2022/12/20 11:51:39;;;;;;;3.35;2.13;;;11.20;99.90;;;;;;5073953;28;20031;-76
2022/12/20 11:54:10;;;;;;;4.65;2.50;;;11.20;99.90;;;;;;5077392;28;20441;-79
2022/12/20 11:56:42;;;;;;;4.75;2.40;;;11.20;99.90;;;;;;5079497;28;20043;-78
2022/12/20 11:59:51;;;;;;;7.55;2.40;;;11.20;99.90;;;;;;5074870;28;20032;-75
2022/12/20 12:02:27;;;;;;;7.18;2.25;;;11.20;99.90;;;;;;5007841;28;20014;-79
2022/12/20 12:04:58;;;;;;;4.07;2.25;;;11.20;99.90;;;;;;5073899;28;20043;-79
2022/12/20 12:07:32;;;;;;;6.18;2.35;;;11.20;99.90;;;;;;5079204;28;20028;-76
2022/12/20 12:10:13;;;;;;;4.47;2.47;;;11.20;99.90;;;;;;5072752;28;20123;-78
2022/12/20 12:12:49;;;;;;;5.60;2.65;;;11.20;99.90;;;;;;5073441;28;20036;-76
2022/12/20 12:15:14;;;;;;;6.93;3.03;;;11.20;99.90;;;;;;5073440;28;20021;-74
2022/12/20 12:18:02;;;;;;;5.25;2.40;;;11.10;99.90;;;;;;5074442;28;20371;-79
2022/12/20 12:20:44;;;;;;;6.30;2.38;;;11.20;99.90;;;;;;5073112;28;20020;-76
2022/12/20 12:23:21;;;;;;;7.07;2.45;;;11.20;99.90;;;;;;5072236;28;20088;-75
2022/12/20 12:25:46;;;;;;;4.90;2.20;;;11.20;99.90;;;;;;5073610;28;20029;-74
2022/12/20 12:28:13;;;;;;;5.63;2.30;;;11.20;99.90;;;;;;5072655;28;20037;-76
2022/12/20 12:30:46;;;;;;;6.32;2.65;;;11.20;99.90;;;;;;5073625;28;20038;-75
2022/12/20 12:33:22;;;;;;;6.25;2.70;;;11.20;99.90;;;;;;5072533;28;20107;-75
2022/12/20 12:36:04;;;;;;;5.05;2.47;;;11.20;99.90;;;;;;5074388;28;20487;-75
2022/12/20 12:38:52;;;;;;;5.35;2.75;;;11.20;99.90;;;;;;5073438;28;20108;-75
2022/12/20 12:41:39;;;;;;;6.80;2.63;;;11.20;99.90;;;;;;5073647;28;20033;-77
2022/12/20 12:44:27;;;;;;;5.78;2.67;;;11.20;99.90;;;;;;5067106;28;20031;-77
2022/12/20 12:46:59;;;;;;;4.85;2.65;;;11.20;99.90;;;;;;5073356;28;20031;-76
2022/12/20 12:49:29;;;;;;;4.97;2.70;;;11.20;99.90;;;;;;5072044;28;20158;-76
2022/12/20 12:52:00;;;;;;;3.45;2.55;;;11.20;99.90;;;;;;5073154;28;20115;-75
2022/12/20 12:54:35;;;;;;;4.75;2.67;;;11.20;99.90;;;;;;5073153;28;20027;-76
2022/12/20 12:57:13;;;;;;;4.80;2.80;;;11.20;99.90;;;;;;5073422;28;20078;-73
2022/12/20 12:59:41;;;;;;;9.25;3.00;;;11.20;99.90;;;;;;5073736;28;20481;-75
2022/12/20 13:02:12;;;;;;;6.30;2.65;;;11.20;99.90;;;;;;5071145;28;20368;-75
2022/12/20 13:05:20;;;;;;;5.13;3.33;;;11.20;99.90;;;;;;5073308;28;20024;-79
2022/12/20 13:07:46;;;;;;;6.05;2.67;;;11.30;99.90;;;;;;5088642;28;20045;-81
2022/12/20 13:10:17;;;;;;;3.90;2.80;;;11.20;99.90;;;;;;5063434;28;20094;-81